Time;durP1;ratioP1;P1;durP2;ratioP2;P2;SDS_P1;SDS_P2;PMS_P1;PMS_P2;Temp;Humidity;BMP_temperature;BMP_pressure;BME280_temperature;BME280_humidity;BME280_pressure;Samples;Min_cycle;Max_cycle;Signal;HPM_P1;HPM_P2
2022/10/03 00:03:10;;;;;;;8.48;3.67;;;;;;;9.25;90.05;100052.20;2083807;85;20974;-82
2022/10/03 00:06:26;;;;;;;5.85;3.27;;;;;;;9.25;89.96;100056.17;2079879;85;21058;-82
2022/10/03 00:09:36;;;;;;;8.58;2.92;;;;;;;9.26;89.97;100051.20;2084271;85;21564;-82
2022/10/03 00:12:58;;;;;;;7.50;2.72;;;;;;;9.25;89.85;100056.17;2091603;85;21026;-82
2022/10/03 00:16:23;;;;;;;7.45;3.33;;;;;;;9.25;90.32;100050.88;2078585;85;21085;-82
2022/10/03 00:19:54;;;;;;;10.68;3.52;;;;;;;9.24;90.19;100045.27;2081424;85;21050;-83
2022/10/03 00:23:06;;;;;;;12.37;3.65;;;;;;;9.25;90.30;100044.77;2049673;85;20994;-82
2022/10/03 00:26:34;;;;;;;13.90;3.05;;;;;;;9.28;90.45;100047.09;2053475;85;21026;-82
2022/10/03 00:29:50;;;;;;;10.08;3.17;;;;;;;9.30;90.39;100047.27;2081121;85;21029;-83
2022/10/03 00:33:12;;;;;;;9.23;3.00;;;;;;;9.31;90.54;100056.03;2082446;84;21125;-83
2022/10/03 00:36:43;;;;;;;10.35;3.55;;;;;;;9.33;90.55;100055.38;2081551;85;21596;-83
2022/10/03 00:40:10;;;;;;;6.90;2.87;;;;;;;9.33;90.48;100045.62;2077431;85;21141;-81
2022/10/03 00:43:28;;;;;;;10.10;3.25;;;;;;;9.32;90.56;100042.64;2072099;85;21017;-82
2022/10/03 00:46:53;;;;;;;6.90;3.05;;;;;;;9.32;90.47;100049.27;2073234;85;21612;-82
2022/10/03 00:50:24;;;;;;;8.03;2.98;;;;;;;9.30;90.61;100045.94;2076253;85;21140;-80
2022/10/03 00:53:37;;;;;;;15.10;4.00;;;;;;;9.26;90.41;100044.59;2078660;85;20993;-82
2022/10/03 00:57:19;;;;;;;7.80;3.02;;;;;;;9.26;90.62;100053.03;2079782;84;21035;-81
2022/10/03 01:00:25;;;;;;;8.20;2.98;;;;;;;9.23;90.59;100044.91;2081742;85;21555;-80
2022/10/03 01:03:40;;;;;;;12.82;3.17;;;;;;;9.18;90.66;100053.84;2075533;85;21025;-81
2022/10/03 01:07:17;;;;;;;9.63;3.27;;;;;;;9.15;90.55;100047.05;2078303;85;21061;-82
2022/10/03 01:10:55;;;;;;;13.35;3.50;;;;;;;9.11;90.62;100048.34;2027603;85;21678;-81
2022/10/03 01:14:20;;;;;;;9.53;2.85;;;;;;;9.06;90.75;100050.63;2075801;85;21040;-81
2022/10/03 01:17:51;;;;;;;9.68;3.37;;;;;;;9.04;90.97;100046.48;2083597;85;21042;-81
2022/10/03 01:21:00;;;;;;;13.38;3.00;;;;;;;9.05;91.13;100048.98;1980540;89;21244;-81
2022/10/03 01:24:27;;;;;;;14.83;3.20;;;;;;;9.09;91.31;100045.02;2079746;85;21094;-81
2022/10/03 01:31:47;;;;;;;13.30;3.72;;;;;;;9.20;91.59;100050.02;2074501;85;21093;-82
2022/10/03 01:35:33;;;;;;;7.15;3.20;;;;;;;9.25;91.86;100048.23;2082345;85;21046;-81
2022/10/03 01:38:48;;;;;;;13.70;2.85;;;;;;;9.29;91.77;100046.94;2080935;84;21069;-81
2022/10/03 01:42:07;;;;;;;10.05;2.83;;;;;;;9.33;91.74;100054.88;2076223;85;21117;-81
2022/10/03 01:45:13;;;;;;;13.90;3.27;;;;;;;9.36;91.64;100057.21;2080866;85;21038;-81
2022/10/03 01:48:38;;;;;;;9.78;3.20;;;;;;;9.37;91.64;100060.19;2078115;85;21065;-81
2022/10/03 01:52:14;;;;;;;11.90;3.25;;;;;;;9.40;91.79;100061.69;2072796;85;21097;-81
2022/10/03 01:55:48;;;;;;;10.00;3.45;;;;;;;9.42;91.66;100064.51;2072950;85;21079;-81
2022/10/03 01:59:07;;;;;;;13.45;3.52;;;;;;;9.44;91.67;100064.36;2059108;85;21052;-81
2022/10/03 02:02:34;;;;;;;10.60;3.60;;;;;;;9.43;91.64;100060.89;2071079;85;21046;-82
2022/10/03 02:06:14;;;;;;;17.12;3.60;;;;;;;9.45;91.63;100062.53;2079001;84;21602;-82
2022/10/03 02:09:58;;;;;;;14.63;4.13;;;;;;;9.46;91.64;100061.53;2079469;85;21951;-82
2022/10/03 02:13:20;;;;;;;8.65;3.15;;;;;;;9.45;91.65;100059.39;2080540;85;21757;-82
2022/10/03 02:16:43;;;;;;;11.38;3.33;;;;;;;9.45;91.71;100069.16;2080080;85;21567;-82
2022/10/03 02:19:50;;;;;;;10.72;3.12;;;;;;;9.45;91.46;100062.53;2081188;85;21080;-82
2022/10/03 02:22:56;;;;;;;13.93;3.42;;;;;;;9.43;91.46;100064.86;2081259;84;21080;-82
2022/10/03 02:26:21;;;;;;;14.18;3.37;;;;;;;9.45;91.38;100062.53;2083973;84;21021;-83
2022/10/03 02:30:05;;;;;;;18.52;3.75;;;;;;;9.45;91.44;100069.16;2071804;86;21092;-80
2022/10/03 02:33:43;;;;;;;12.93;3.22;;;;;;;9.45;91.39;100074.45;2042336;86;21002;-82
2022/10/03 02:37:06;;;;;;;10.72;3.50;;;;;;;9.45;91.49;100079.75;2063657;86;21006;-82
2022/10/03 02:40:47;;;;;;;13.98;3.27;;;;;;;9.46;91.33;100085.38;2064997;86;21045;-82
2022/10/03 02:44:45;;;;;;;10.93;3.07;;;;;;;9.46;91.42;100084.91;2065218;86;21049;-81
2022/10/03 02:48:28;;;;;;;12.43;3.27;;;;;;;9.47;91.50;100087.05;2065858;86;21116;-82
2022/10/03 02:51:54;;;;;;;7.70;3.15;;;;;;;9.48;91.44;100095.31;2065893;86;21121;-81
2022/10/03 02:55:26;;;;;;;10.68;3.00;;;;;;;9.49;91.35;100095.64;2065612;85;21023;-81
2022/10/03 02:58:36;;;;;;;8.90;2.98;;;;;;;9.49;91.29;100091.20;2069558;84;20958;-81
2022/10/03 03:02:08;;;;;;;10.48;2.50;;;;;;;9.50;91.29;100108.73;2101161;84;21161;-81
2022/10/03 03:05:55;;;;;;;14.93;3.37;;;;;;;9.51;91.32;100105.59;2078385;84;21579;-82
2022/10/03 03:09:28;;;;;;;8.15;2.95;;;;;;;9.53;91.29;100110.24;2067017;85;21037;-82
2022/10/03 03:13:06;;;;;;;16.32;3.80;;;;;;;9.53;91.20;100107.09;2063103;85;21002;-82
2022/10/03 03:16:42;;;;;;;12.63;3.55;;;;;;;9.55;91.18;100093.20;2062463;85;21507;-81
2022/10/03 03:19:52;;;;;;;15.85;3.65;;;;;;;9.56;91.12;100108.09;2064494;85;21560;-82
2022/10/03 03:23:21;;;;;;;15.72;3.70;;;;;;;9.57;91.08;100105.80;2063944;85;21005;-82
2022/10/03 03:26:30;;;;;;;12.93;3.25;;;;;;;9.58;91.04;100101.33;2071499;85;21030;-82
2022/10/03 03:29:46;;;;;;;15.95;3.20;;;;;;;9.60;90.93;100108.13;2066095;85;21047;-82
2022/10/03 03:33:27;;;;;;;15.40;3.60;;;;;;;9.62;90.96;100106.62;2063377;85;21692;-82
2022/10/03 03:36:49;;;;;;;;;;;;;;;9.61;91.13;100108.95;2068909;85;21058;-82
2022/10/03 03:40:15;;;;;;;13.88;3.33;;;;;;;9.62;91.03;100106.62;2067557;85;20279;-82
2022/10/03 03:43:25;;;;;;;19.42;3.65;;;;;;;9.62;91.06;100109.27;2068532;85;21026;-83
2022/10/03 03:46:54;;;;;;;15.15;3.72;;;;;;;9.61;90.96;100112.92;2061987;85;21524;-83
2022/10/03 03:50:19;;;;;;;15.10;2.83;;;;;;;9.61;91.00;100117.72;2067199;85;21066;-83
2022/10/03 03:53:46;;;;;;;14.13;3.65;;;;;;;9.61;90.92;100121.70;2066816;85;21014;-83
2022/10/03 03:57:13;;;;;;;12.98;3.58;;;;;;;9.61;90.98;100122.20;2060431;85;21081;-82
2022/10/03 04:00:20;;;;;;;11.43;2.85;;;;;;;9.60;91.14;100115.22;2051081;85;21467;-81
2022/10/03 04:03:47;;;;;;;10.98;4.08;;;;;;;9.60;91.08;100128.46;2061088;86;21527;-81
2022/10/03 04:07:30;;;;;;;11.93;3.40;;;;;;;9.59;91.27;100121.52;2060024;86;21572;-81
2022/10/03 04:10:46;;;;;;;14.00;3.20;;;;;;;9.58;91.05;100128.64;2060553;86;21048;-81
2022/10/03 04:14:11;;;;;;;13.15;2.80;;;;;;;9.56;90.99;100129.28;2036809;85;21063;-82
2022/10/03 04:21:19;;;;;;;8.25;3.25;;;;;;;9.55;91.04;100118.87;2063592;85;21037;-87
2022/10/03 04:24:49;;;;;;;13.30;3.42;;;;;;;9.53;91.12;100118.19;2059522;86;21021;-85
2022/10/03 04:28:26;;;;;;;15.03;3.20;;;;;;;9.51;90.95;100118.83;2052207;86;21015;-84
2022/10/03 04:31:40;;;;;;;10.23;3.25;;;;;;;9.48;90.99;100117.83;2062974;86;21076;-82
2022/10/03 04:35:04;;;;;;;14.20;3.58;;;;;;;9.45;91.19;100107.06;2061570;86;21566;-87
2022/10/03 04:38:31;;;;;;;14.90;3.80;;;;;;;9.43;91.02;100111.21;2060463;85;20986;-88
2022/10/03 04:41:48;;;;;;;15.23;3.77;;;;;;;9.40;91.07;100103.59;2061247;86;21010;-85
2022/10/03 04:45:13;;;;;;;12.00;3.40;;;;;;;9.36;91.08;100110.17;2062513;86;21695;-88
2022/10/03 04:48:19;;;;;;;14.18;3.17;;;;;;;9.35;91.13;100106.38;2060319;85;21025;-83
2022/10/03 04:51:53;;;;;;;10.60;2.75;;;;;;;9.35;91.25;100113.00;2062468;85;21585;-81
2022/10/03 04:55:29;;;;;;;17.17;3.35;;;;;;;9.35;91.18;100109.84;2019977;85;21022;-76
2022/10/03 04:59:03;;;;;;;15.65;3.02;;;;;;;9.35;91.06;100101.91;2090134;85;21030;-78
2022/10/03 05:02:19;;;;;;;10.38;2.42;;;;;;;9.34;91.02;100100.22;2080407;85;21005;-80
2022/10/03 05:05:40;;;;;;;12.10;3.27;;;;;;;9.35;90.91;100096.61;2077446;83;21488;-82
2022/10/03 05:08:47;;;;;;;15.00;3.40;;;;;;;9.36;90.83;100101.41;2081240;84;20986;-82
2022/10/03 05:12:26;;;;;;;20.12;3.67;;;;;;;9.38;90.77;100097.61;2078985;85;21077;-81
2022/10/03 05:15:51;;;;;;;12.43;2.83;;;;;;;9.39;90.74;100105.05;2079789;84;21064;-80
2022/10/03 05:19:09;;;;;;;10.50;3.35;;;;;;;9.40;90.67;100101.41;2082392;84;21114;-80
2022/10/03 05:22:31;;;;;;;11.97;3.40;;;;;;;9.42;90.66;100098.94;2053733;85;21539;-80
2022/10/03 05:26:12;;;;;;;13.28;2.98;;;;;;;9.43;90.73;100101.94;2072295;84;20985;-80
2022/10/03 05:29:28;;;;;;;13.00;3.47;;;;;;;9.47;90.67;100101.62;2066610;84;21081;-79
2022/10/03 05:33:17;;;;;;;12.85;3.30;;;;;;;9.50;90.60;100106.59;2073865;85;21097;-75
2022/10/03 05:36:29;;;;;;;14.00;2.87;;;;;;;9.52;90.77;100113.39;2062456;85;21021;-77
2022/10/03 05:39:58;;;;;;;16.95;3.65;;;;;;;9.55;91.20;100110.92;2075452;84;21026;-78
2022/10/03 05:43:27;;;;;;;14.95;3.33;;;;;;;9.55;91.28;100109.59;2071365;84;21046;-78
2022/10/03 05:46:45;;;;;;;14.65;2.87;;;;;;;9.53;91.59;100112.39;2067645;84;21022;-80
2022/10/03 05:50:28;;;;;;;12.23;2.80;;;;;;;9.52;91.55;100109.42;2072690;84;21090;-79
2022/10/03 05:53:56;;;;;;;14.10;3.20;;;;;;;9.53;91.86;100111.06;2074264;84;21062;-81
2022/10/03 05:57:49;;;;;;;13.53;3.33;;;;;;;9.56;91.75;100117.87;2075410;84;21032;-79
2022/10/03 06:01:27;;;;;;;10.28;2.62;;;;;;;9.61;91.92;100107.63;2061754;85;21745;-79
2022/10/03 06:04:52;;;;;;;9.78;2.40;;;;;;;9.79;92.18;100113.62;2063029;85;21061;-81
2022/10/03 06:08:36;;;;;;;10.25;2.77;;;;;;;10.01;92.38;100121.46;2059376;85;21068;-80
2022/10/03 06:12:02;;;;;;;11.85;2.92;;;;;;;10.61;91.40;100122.20;2063498;85;21564;-80
2022/10/03 06:15:34;;;;;;;14.68;2.95;;;;;;;10.61;91.40;100122.20;2063422;85;21619;-80
2022/10/03 06:19:10;;;;;;;11.10;2.55;;;;;;;10.55;90.36;100140.94;2062010;86;21011;-81
2022/10/03 06:22:46;;;;;;;11.35;3.42;;;;;;;10.55;90.36;100140.94;2043619;85;21065;-75
2022/10/03 06:26:36;;;;;;;9.88;2.80;;;;;;;10.55;89.90;100126.34;2061192;85;21093;-79
2022/10/03 06:30:04;;;;;;;10.43;3.27;;;;;;;10.50;89.72;100136.14;2065330;85;21042;-78
2022/10/03 06:33:29;;;;;;;9.25;2.25;;;;;;;10.57;89.67;100137.62;2063151;85;20999;-78
2022/10/03 06:37:10;;;;;;;13.62;2.98;;;;;;;10.50;89.57;100143.25;2061810;85;21130;-78
2022/10/03 06:40:50;;;;;;;8.83;2.22;;;;;;;10.43;89.71;100151.55;2063827;85;21055;-78
2022/10/03 06:44:09;;;;;;;9.45;2.72;;;;;;;10.24;89.51;100125.63;2064797;85;20990;-79
2022/10/03 06:47:41;;;;;;;7.78;1.70;;;;;;;10.35;89.60;100155.02;2061550;85;21081;-79
2022/10/03 06:51:31;;;;;;;12.07;3.42;;;;;;;10.39;89.86;100164.80;2061561;85;21031;-79
2022/10/03 06:55:03;;;;;;;6.10;2.33;;;;;;;10.39;89.86;100164.80;2012482;85;21159;-79
2022/10/03 06:58:44;;;;;;;8.23;2.08;;;;;;;10.28;89.64;100140.27;2061956;85;21114;-78
2022/10/03 07:02:24;;;;;;;9.23;2.55;;;;;;;10.35;89.73;100166.95;2061130;85;21085;-78
2022/10/03 07:05:57;;;;;;;4.87;2.00;;;;;;;10.35;89.83;100160.83;2058777;85;21078;-78
2022/10/03 07:09:10;;;;;;;10.28;2.10;;;;;;;10.37;89.69;100170.78;2060179;86;21058;-78
2022/10/03 07:13:05;;;;;;;7.28;1.90;;;;;;;10.44;89.75;100158.50;2047969;85;21058;-79
2022/10/03 07:16:59;;;;;;;8.33;2.10;;;;;;;10.40;89.67;100147.91;2059378;85;20979;-79
2022/10/03 07:20:18;;;;;;;9.20;2.10;;;;;;;10.54;89.59;100165.81;2058499;85;21066;-79
2022/10/03 07:23:48;;;;;;;8.08;1.98;;;;;;;10.66;89.31;100181.73;2058834;85;21090;-79
2022/10/03 07:27:24;;;;;;;5.58;2.02;;;;;;;10.74;88.88;100184.89;2061090;85;21094;-78
2022/10/03 07:30:47;;;;;;;8.53;2.15;;;;;;;10.79;88.75;100181.25;2063165;85;21528;-78
2022/10/03 07:34:05;;;;;;;7.53;2.62;;;;;;;10.83;88.91;100183.06;2060462;85;20986;-78
2022/10/03 07:41:11;;;;;;;4.37;1.57;;;;;;;10.89;88.85;100190.35;2062981;85;21091;-79
2022/10/03 07:44:31;;;;;;;4.00;1.80;;;;;;;10.90;89.02;100192.85;2059619;85;21019;-79
2022/10/03 07:48:06;;;;;;;6.47;1.60;;;;;;;10.93;88.79;100208.95;2060646;85;21137;-78
2022/10/03 07:51:54;;;;;;;4.95;1.80;;;;;;;10.98;88.73;100210.58;2058077;85;20999;-79
2022/10/03 07:55:29;;;;;;;5.87;1.75;;;;;;;10.94;88.44;100210.09;2059144;85;21118;-78
2022/10/03 07:58:44;;;;;;;4.80;1.57;;;;;;;10.95;88.40;100209.59;2075365;85;21552;-79
2022/10/03 08:02:07;;;;;;;3.47;1.50;;;;;;;10.93;87.87;100203.64;2082299;84;21560;-79
2022/10/03 08:05:31;;;;;;;7.95;1.70;;;;;;;10.91;88.05;100203.80;2065163;84;21097;-79
2022/10/03 08:08:49;;;;;;;5.60;1.80;;;;;;;10.96;87.95;100200.14;2072987;85;21128;-79
2022/10/03 08:12:21;;;;;;;8.13;1.40;;;;;;;11.06;87.89;100203.94;2069596;85;21100;-79
2022/10/03 08:15:52;;;;;;;3.90;1.65;;;;;;;11.14;87.61;100207.09;2073776;84;21554;-79
2022/10/03 08:19:11;;;;;;;6.65;1.70;;;;;;;11.23;87.41;100210.05;2067649;84;21093;-79
2022/10/03 08:22:37;;;;;;;9.43;1.72;;;;;;;11.23;86.84;100214.04;2068130;85;21101;-79
2022/10/03 08:26:24;;;;;;;4.75;1.82;;;;;;;11.17;86.46;100220.03;2066101;85;21092;-78
2022/10/03 08:29:38;;;;;;;5.75;1.70;;;;;;;11.08;86.26;100216.56;2071068;85;21066;-77
2022/10/03 08:33:06;;;;;;;10.15;2.15;;;;;;;10.99;86.34;100218.39;2069290;85;21505;-78
2022/10/03 08:36:39;;;;;;;5.17;1.55;;;;;;;11.04;86.92;100223.22;2070622;85;21069;-77
2022/10/03 08:40:06;;;;;;;4.58;1.90;;;;;;;11.08;86.72;100217.88;2072132;85;21026;-79
2022/10/03 08:43:34;;;;;;;3.98;1.45;;;;;;;11.14;86.40;100220.37;2070522;85;21064;-78
2022/10/03 08:47:06;;;;;;;4.12;1.65;;;;;;;11.19;86.05;100220.20;2077822;85;21082;-78
2022/10/03 08:50:21;;;;;;;5.20;1.77;;;;;;;11.21;85.84;100219.54;2071040;84;21018;-78
2022/10/03 08:54:07;;;;;;;6.10;1.67;;;;;;;11.29;85.99;100213.86;2069734;85;21680;-78
2022/10/03 08:57:23;;;;;;;3.58;1.55;;;;;;;11.51;85.68;100208.34;2075199;85;21058;-79
2022/10/03 09:00:51;;;;;;;6.33;2.02;;;;;;;11.78;85.30;100221.21;2075728;84;21062;-79
2022/10/03 09:04:10;;;;;;;6.65;1.57;;;;;;;11.94;83.32;100200.89;2069549;85;21034;-79
2022/10/03 09:07:59;;;;;;;2.75;1.25;;;;;;;11.95;83.54;100223.34;2068729;84;21033;-79
2022/10/03 09:11:24;;;;;;;2.12;1.02;;;;;;;11.94;83.18;100220.36;2071541;84;21044;-78
2022/10/03 09:14:50;;;;;;;5.90;1.55;;;;;;;11.93;83.23;100219.19;2071241;85;21104;-78
2022/10/03 09:18:28;;;;;;;2.92;1.42;;;;;;;11.88;83.35;100228.52;2072097;84;21045;-79
2022/10/03 09:21:56;;;;;;;3.58;1.98;;;;;;;11.81;82.82;100228.02;2075398;84;21481;-78
2022/10/03 09:25:04;;;;;;;7.00;1.60;;;;;;;11.75;82.68;100232.70;2074370;84;21603;-78
2022/10/03 09:28:51;;;;;;;4.85;1.90;;;;;;;11.78;82.85;100222.54;2069567;84;21049;-78
2022/10/03 09:32:24;;;;;;;3.87;1.65;;;;;;;11.84;83.05;100223.17;2076967;85;21034;-79
2022/10/03 09:35:42;;;;;;;8.60;2.00;;;;;;;12.06;82.92;100224.78;2072377;84;20986;-78
2022/10/03 09:39:01;;;;;;;7.03;1.75;;;;;;;12.19;82.24;100227.72;2070638;85;21109;-78
2022/10/03 09:42:20;;;;;;;5.47;2.00;;;;;;;12.24;82.07;100237.81;2025977;85;21085;-78
2022/10/03 09:45:42;;;;;;;4.37;1.55;;;;;;;12.28;81.81;100236.48;2056056;85;21022;-77
2022/10/03 09:49:11;;;;;;;3.87;1.60;;;;;;;12.18;80.38;100224.72;2071052;85;21489;-77
2022/10/03 09:52:55;;;;;;;8.70;2.35;;;;;;;12.11;80.71;100244.54;2064709;85;21021;-82
2022/10/03 09:56:34;;;;;;;9.28;2.40;;;;;;;12.12;81.28;100246.70;2070927;85;21628;-76
2022/10/03 09:59:59;;;;;;;6.85;2.10;;;;;;;12.14;81.55;100249.19;2068796;84;21021;-77
2022/10/03 10:03:48;;;;;;;8.25;1.87;;;;;;;11.97;81.84;100258.56;2051222;85;21459;-77
2022/10/03 10:07:36;;;;;;;11.20;2.10;;;;;;;11.81;82.65;100263.40;2073282;85;20994;-77
2022/10/03 10:10:58;;;;;;;7.55;2.17;;;;;;;11.74;82.30;100266.43;2075747;85;21062;-77
2022/10/03 10:14:11;;;;;;;4.75;2.08;;;;;;;11.77;82.83;100266.09;2062376;85;21072;-79
2022/10/03 10:17:32;;;;;;;9.10;2.33;;;;;;;11.89;82.84;100269.23;2069622;85;21038;-77
2022/10/03 10:21:12;;;;;;;6.00;2.20;;;;;;;11.92;82.28;100270.22;2067265;85;21590;-78
2022/10/03 10:24:48;;;;;;;8.43;2.92;;;;;;;11.92;81.93;100268.06;2071829;85;21085;-77
2022/10/03 10:28:07;;;;;;;7.70;2.33;;;;;;;11.98;81.92;100264.20;2045127;85;21028;-77
2022/10/03 10:31:28;;;;;;;6.08;1.70;;;;;;;12.04;81.44;100260.84;2067619;85;21085;-77
2022/10/03 10:35:16;;;;;;;7.40;2.17;;;;;;;12.05;81.19;100267.84;2072115;85;21065;-78
2022/10/03 10:38:41;;;;;;;5.53;2.10;;;;;;;11.98;81.32;100273.52;2067138;85;21112;-78
2022/10/03 10:42:02;;;;;;;7.50;1.92;;;;;;;11.92;81.37;100268.88;2074453;84;22366;-78
2022/10/03 10:45:24;;;;;;;6.50;2.62;;;;;;;11.81;81.35;100273.21;2073872;85;21053;-77
2022/10/03 10:48:48;;;;;;;4.35;2.00;;;;;;;11.72;81.61;100266.27;2075053;85;21059;-77
2022/10/03 10:52:20;;;;;;;9.23;2.87;;;;;;;11.69;81.92;100283.89;2068395;85;21500;-78
2022/10/03 10:55:59;;;;;;;8.30;2.72;;;;;;;11.66;81.67;100276.58;2076741;85;21014;-77
2022/10/03 10:59:51;;;;;;;8.65;2.60;;;;;;;11.67;81.85;100270.25;2061442;85;22398;-78
2022/10/03 11:03:42;;;;;;;5.65;2.30;;;;;;;11.75;81.97;100274.72;2066938;84;21532;-78
2022/10/03 11:07:13;;;;;;;9.08;2.17;;;;;;;11.96;81.93;100278.16;2076377;85;21088;-78
2022/10/03 11:10:22;;;;;;;6.42;1.72;;;;;;;12.14;81.83;100263.31;2071072;85;21584;-78
2022/10/03 11:14:13;;;;;;;7.85;2.25;;;;;;;12.40;81.55;100263.52;2068883;85;21030;-78
2022/10/03 11:17:57;;;;;;;7.50;2.17;;;;;;;12.63;80.93;100256.89;2073198;85;21042;-78
2022/10/03 11:21:32;;;;;;;7.40;2.70;;;;;;;12.82;80.05;100254.27;2074278;85;21148;-77
2022/10/03 11:25:11;;;;;;;6.72;2.12;;;;;;;12.93;80.01;100259.17;2069718;85;20998;-78
2022/10/03 11:28:50;;;;;;;5.62;2.25;;;;;;;12.99;79.23;100263.27;2073703;85;21719;-79
2022/10/03 11:32:15;;;;;;;5.67;1.50;;;;;;;13.21;78.64;100263.44;2056172;85;21038;-78
2022/10/03 11:35:44;;;;;;;7.92;1.67;;;;;;;13.79;79.45;100263.19;2072607;85;21541;-78
2022/10/03 11:38:51;;;;;;;5.58;1.90;;;;;;;13.89;77.19;100277.08;2074527;85;22442;-78
2022/10/03 11:42:03;;;;;;;7.75;2.20;;;;;;;13.73;76.46;100249.77;2073964;84;21117;-77
2022/10/03 11:45:22;;;;;;;7.30;1.75;;;;;;;13.62;76.13;100270.53;2068885;85;21030;-77
2022/10/03 11:48:38;;;;;;;9.30;2.08;;;;;;;13.55;76.30;100270.14;2065433;85;21053;-77
2022/10/03 11:51:50;;;;;;;4.72;2.00;;;;;;;13.61;75.57;100269.41;2075469;85;21002;-78
2022/10/03 11:55:15;;;;;;;9.43;2.90;;;;;;;13.62;75.21;100261.20;2072400;85;21034;-77
2022/10/03 11:58:49;;;;;;;6.47;1.90;;;;;;;13.65;75.43;100253.34;2055902;85;21136;-77
2022/10/03 12:02:27;;;;;;;3.33;1.40;;;;;;;13.71;75.62;100267.78;2037649;87;21046;-77
2022/10/03 12:09:52;;;;;;;6.55;2.40;;;;;;;13.93;74.30;100270.86;2038292;87;21505;-78
2022/10/03 12:12:55;;;;;;;10.20;1.77;;;;;;;13.76;74.45;100275.55;2039925;86;21073;-77
2022/10/03 12:15:57;;;;;;;7.47;2.08;;;;;;;13.67;73.20;100276.66;2036156;87;21042;-78
2022/10/03 12:19:36;;;;;;;4.03;1.70;;;;;;;13.60;73.50;100269.06;2039332;86;21010;-78
2022/10/03 12:23:04;;;;;;;5.42;1.42;;;;;;;13.60;73.20;100277.91;2037606;86;21124;-79
2022/10/03 12:26:11;;;;;;;2.33;1.37;;;;;;;13.53;72.97;100280.97;2041559;87;21035;-79
2022/10/03 12:29:15;;;;;;;4.08;1.40;;;;;;;13.51;73.50;100277.65;2039592;85;21064;-79
2022/10/03 12:32:48;;;;;;;5.60;1.45;;;;;;;13.82;73.59;100273.48;2039048;85;21127;-80
2022/10/03 12:36:06;;;;;;;6.17;1.40;;;;;;;14.24;73.45;100275.16;2042225;86;21081;-80
2022/10/03 12:39:41;;;;;;;5.80;1.75;;;;;;;14.59;72.07;100274.06;2037517;87;22321;-79
2022/10/03 12:43:06;;;;;;;5.10;1.40;;;;;;;14.61;70.55;100270.67;2044931;85;21572;-79
2022/10/03 12:46:19;;;;;;;4.85;1.30;;;;;;;14.22;69.26;100275.36;2038119;85;21069;-80
2022/10/03 12:49:58;;;;;;;3.42;1.50;;;;;;;13.84;69.78;100282.65;2042781;87;21025;-78
2022/10/03 12:53:20;;;;;;;7.78;1.40;;;;;;;13.62;70.97;100291.04;2038220;87;21545;-78
2022/10/03 12:56:43;;;;;;;4.90;1.45;;;;;;;13.32;71.45;100301.67;2035934;85;21084;-77
2022/10/03 13:00:07;;;;;;;5.55;1.55;;;;;;;13.14;72.09;100303.77;2075065;85;21030;-78
2022/10/03 13:03:43;;;;;;;5.90;1.57;;;;;;;13.17;73.08;100301.57;2077412;84;21095;-79
2022/10/03 13:07:09;;;;;;;6.20;2.08;;;;;;;13.29;73.19;100295.38;2072410;85;21072;-78
2022/10/03 13:10:28;;;;;;;6.70;1.70;;;;;;;13.41;73.40;100297.91;2070624;85;21091;-78
2022/10/03 13:13:44;;;;;;;7.12;2.12;;;;;;;13.41;72.68;100305.09;2052740;85;21054;-78
2022/10/03 13:17:19;;;;;;;7.53;2.10;;;;;;;13.40;72.84;100303.41;2071916;85;20990;-78
2022/10/03 13:20:42;;;;;;;6.50;2.08;;;;;;;13.39;72.70;100312.42;2071671;85;21073;-78
2022/10/03 13:24:08;;;;;;;4.42;1.82;;;;;;;13.47;72.62;100311.53;2071227;85;21558;-79
2022/10/03 13:27:20;;;;;;;8.05;2.17;;;;;;;13.67;72.19;100300.66;2069886;85;20998;-78
2022/10/03 13:30:33;;;;;;;6.75;2.00;;;;;;;13.87;72.01;100307.10;2070614;85;21145;-78
2022/10/03 13:33:54;;;;;;;6.67;1.87;;;;;;;13.99;71.20;100305.31;2073682;84;21566;-78
2022/10/03 13:37:09;;;;;;;4.60;1.82;;;;;;;13.99;71.19;100313.31;2075478;84;21061;-79
2022/10/03 13:40:14;;;;;;;9.15;2.87;;;;;;;13.84;71.59;100311.98;2073584;84;21038;-78
2022/10/03 13:43:22;;;;;;;10.38;2.87;;;;;;;13.62;72.09;100313.20;2077128;84;21057;-79
2022/10/03 13:46:52;;;;;;;8.10;2.85;;;;;;;13.40;72.63;100313.59;2073204;84;21109;-78
2022/10/03 13:50:00;;;;;;;14.45;3.83;;;;;;;13.19;73.50;100320.06;2071830;85;31001;-77
2022/10/03 13:53:23;;;;;;;11.12;4.55;;;;;;;12.98;74.22;100326.88;2073890;84;21473;-77
2022/10/03 13:56:38;;;;;;;9.75;4.12;;;;;;;12.84;75.27;100320.98;2058555;85;21124;-79
2022/10/03 13:59:46;;;;;;;13.30;4.70;;;;;;;12.76;76.00;100324.52;2071653;85;21501;-79
2022/10/03 14:03:06;;;;;;;8.13;3.30;;;;;;;12.68;76.38;100332.55;2075909;85;21461;-79
2022/10/03 14:06:31;;;;;;;10.43;3.08;;;;;;;12.61;77.14;100329.42;2073332;85;21031;-80
2022/10/03 14:09:59;;;;;;;6.53;2.92;;;;;;;12.49;77.14;100329.81;2066626;84;21041;-79
2022/10/03 14:13:38;;;;;;;6.40;2.30;;;;;;;12.36;77.59;100341.55;2069217;85;21646;-79
2022/10/03 14:16:45;;;;;;;9.75;2.65;;;;;;;12.19;77.96;100342.58;2072585;85;21098;-79
2022/10/03 14:20:20;;;;;;;11.75;3.37;;;;;;;12.08;78.69;100332.66;2077665;85;21013;-79
2022/10/03 14:23:45;;;;;;;7.45;2.90;;;;;;;12.01;79.47;100338.83;2072080;85;21019;-79
2022/10/03 14:27:27;;;;;;;8.80;3.08;;;;;;;12.05;80.25;100353.42;2067528;84;21528;-79
2022/10/03 14:30:49;;;;;;;10.35;2.60;;;;;;;12.11;80.38;100342.95;2070557;84;21061;-79
2022/10/03 14:34:18;;;;;;;9.60;3.27;;;;;;;12.20;80.65;100349.58;2058825;84;21532;-78
2022/10/03 14:37:52;;;;;;;10.30;3.30;;;;;;;12.23;80.76;100337.27;2073801;85;21097;-79
2022/10/03 14:41:01;;;;;;;14.60;2.85;;;;;;;12.22;80.42;100339.58;2073147;85;21565;-78
2022/10/03 14:44:28;;;;;;;6.17;2.08;;;;;;;12.24;80.27;100346.89;2069223;84;20994;-77
2022/10/03 14:47:39;;;;;;;9.90;2.45;;;;;;;12.25;79.96;100353.89;2071440;85;21034;-75
2022/10/03 14:50:42;;;;;;;5.87;2.30;;;;;;;12.25;79.85;100349.91;2071102;85;21102;-76
2022/10/03 14:54:01;;;;;;;8.18;2.62;;;;;;;12.23;79.71;100349.23;2073635;85;21005;-77
2022/10/03 14:57:35;;;;;;;8.08;2.72;;;;;;;12.24;79.78;100357.02;2061194;85;21133;-76
2022/10/03 15:00:44;;;;;;;7.67;2.35;;;;;;;12.28;79.71;100355.70;2036842;87;21000;-76
2022/10/03 15:04:12;;;;;;;7.60;2.70;;;;;;;12.28;79.49;100362.35;2038546;86;21035;-76
2022/10/03 15:07:15;;;;;;;10.30;3.27;;;;;;;12.27;79.25;100361.17;2041259;85;21594;-76
2022/10/03 15:10:22;;;;;;;6.45;2.40;;;;;;;12.26;79.29;100363.52;2058570;86;21065;-76
2022/10/03 15:13:26;;;;;;;7.55;2.52;;;;;;;12.22;79.13;100371.50;2041133;87;21113;-76
2022/10/03 15:16:41;;;;;;;8.75;2.35;;;;;;;12.15;79.45;100373.20;2064797;85;21012;-76
2022/10/03 15:19:47;;;;;;;9.60;3.10;;;;;;;12.05;79.58;100386.20;2046891;85;21043;-75
2022/10/03 15:22:54;;;;;;;8.73;2.98;;;;;;;11.94;80.04;100379.91;2041087;85;20969;-76
2022/10/03 15:25:57;;;;;;;13.03;3.47;;;;;;;11.86;80.02;100375.92;2037909;85;21113;-76
2022/10/03 15:29:03;;;;;;;12.00;3.20;;;;;;;11.78;80.25;100369.26;2051411;86;21067;-76
2022/10/03 15:32:10;;;;;;;10.63;3.27;;;;;;;11.73;80.48;100379.05;2053292;85;21080;-76
2022/10/03 15:35:19;;;;;;;9.65;4.58;;;;;;;11.65;80.73;100379.06;2067647;84;21100;-77
2022/10/03 15:38:40;;;;;;;13.93;4.95;;;;;;;11.61;81.37;100377.24;2026431;87;21023;-76
2022/10/03 15:42:06;;;;;;;16.23;6.33;;;;;;;11.56;81.36;100381.39;2043453;85;21684;-76
2022/10/03 15:45:13;;;;;;;11.12;4.30;;;;;;;11.51;81.51;100379.23;2048599;85;21066;-77
2022/10/03 15:48:20;;;;;;;20.25;9.45;;;;;;;11.47;81.94;100385.89;2042619;85;21053;-76
2022/10/03 15:51:25;;;;;;;27.32;9.93;;;;;;;11.38;82.31;100412.12;2026937;85;21052;-76
2022/10/03 15:54:31;;;;;;;17.17;6.78;;;;;;;11.25;83.09;100399.31;2041051;87;21045;-75
2022/10/03 15:57:46;;;;;;;9.80;3.95;;;;;;;11.18;83.16;100401.81;2040930;87;21126;-76
2022/10/03 16:00:55;;;;;;;12.37;4.53;;;;;;;11.13;83.72;100393.49;2079971;85;21097;-75
2022/10/03 16:04:08;;;;;;;8.60;4.15;;;;;;;11.10;83.83;100396.48;2074157;84;21069;-76
2022/10/03 16:07:29;;;;;;;11.35;4.85;;;;;;;11.07;83.83;100398.13;2071696;85;21113;-75
2022/10/03 16:10:51;;;;;;;9.48;3.87;;;;;;;11.06;83.92;100396.45;2075310;85;21010;-76